createdAt,value
2023-04-18T00:02:02.402Z,7.60
2023-04-18T00:04:31.322Z,7.60
2023-04-18T00:06:59.354Z,7.60
2023-04-18T00:09:27.739Z,7.60
2023-04-18T00:11:55.747Z,7.60
2023-04-18T00:14:23.828Z,7.60
2023-04-18T00:16:54.306Z,7.50
2023-04-18T00:19:23.984Z,7.50
2023-04-18T00:21:53.910Z,7.50
2023-04-18T00:24:22.260Z,7.60
2023-04-18T00:26:50.616Z,7.60
2023-04-18T00:29:18.606Z,7.60
2023-04-18T00:31:46.868Z,7.60
2023-04-18T00:34:15.030Z,7.60
2023-04-18T00:36:44.939Z,7.60
2023-04-18T00:39:12.902Z,7.50
2023-04-18T00:41:41.077Z,7.50
2023-04-18T00:44:09.029Z,7.50
2023-04-18T00:46:37.569Z,7.60
2023-04-18T00:49:05.811Z,7.60
2023-04-18T00:51:35.658Z,7.60
2023-04-18T00:54:13.603Z,7.60
2023-04-18T00:57:07.916Z,7.60
2023-04-18T00:59:36.090Z,7.60
2023-04-18T01:02:05.211Z,7.60
2023-04-18T01:04:35.118Z,7.60
2023-04-18T01:07:03.355Z,7.60
2023-04-18T01:09:33.194Z,7.60
2023-04-18T01:12:01.852Z,7.70
2023-04-18T01:14:30.241Z,7.70
2023-04-18T01:16:58.719Z,7.70
2023-04-18T01:19:27.487Z,7.80
2023-04-18T01:21:55.528Z,7.70
2023-04-18T01:24:27.215Z,7.70
2023-04-18T01:26:55.232Z,7.70
2023-04-18T01:29:23.907Z,7.70
2023-04-18T01:31:51.896Z,7.80
2023-04-18T01:34:20.750Z,7.80
2023-04-18T01:36:48.740Z,7.90
2023-04-18T01:39:18.400Z,7.80
2023-04-18T01:41:48.372Z,7.90
2023-04-18T01:44:17.940Z,7.90
2023-04-18T01:46:47.366Z,7.90
2023-04-18T01:49:15.421Z,7.90
2023-04-18T01:51:44.175Z,7.90
2023-04-18T01:54:12.342Z,8.00
2023-04-18T01:56:40.952Z,8.00
2023-04-18T01:59:10.387Z,8.00
2023-04-18T02:01:39.761Z,8.10
2023-04-18T02:04:07.866Z,8.10
2023-04-18T02:06:36.017Z,8.10
2023-04-18T02:09:03.983Z,8.10
2023-04-18T02:11:32.343Z,8.00
2023-04-18T02:14:00.386Z,8.00
2023-04-18T02:16:30.406Z,8.00
2023-04-18T02:18:58.522Z,8.00
2023-04-18T02:21:27.390Z,8.00
2023-04-18T02:23:55.381Z,8.00
2023-04-18T02:26:24.342Z,8.00
2023-04-18T02:28:52.480Z,8.00
2023-04-18T02:31:23.273Z,8.00
2023-04-18T02:33:52.646Z,8.00
2023-04-18T02:36:23.751Z,8.00
2023-04-18T02:38:51.726Z,8.00
2023-04-18T02:41:21.828Z,7.90
2023-04-18T02:43:49.895Z,8.00
2023-04-18T02:46:20.737Z,8.00
2023-04-18T02:48:50.068Z,8.00
2023-04-18T02:51:21.938Z,7.90
2023-04-18T02:53:54.903Z,7.90
2023-04-18T02:56:25.047Z,7.90
2023-04-18T02:59:11.577Z,8.00
2023-04-18T03:01:56.311Z,7.90
2023-04-18T03:04:24.974Z,7.90
2023-04-18T03:07:00.729Z,8.00
2023-04-18T03:09:31.829Z,8.00
2023-04-18T03:12:05.833Z,8.00
2023-04-18T03:14:35.741Z,8.00
2023-04-18T03:17:04.433Z,8.00
2023-04-18T03:19:38.380Z,7.90
2023-04-18T03:22:14.336Z,7.90
2023-04-18T03:24:49.370Z,7.90
2023-04-18T03:27:18.898Z,7.90
2023-04-18T03:29:48.449Z,7.90
2023-04-18T03:32:17.798Z,8.00
2023-04-18T03:34:45.803Z,8.00
2023-04-18T03:37:15.609Z,8.00
2023-04-18T03:39:49.482Z,8.00
2023-04-18T03:42:18.203Z,7.90
2023-04-18T03:44:46.264Z,7.90
2023-04-18T03:47:16.094Z,7.90
2023-04-18T03:49:47.382Z,7.90
2023-04-18T03:52:17.603Z,7.90
2023-04-18T03:54:45.625Z,7.90
2023-04-18T03:57:14.610Z,7.90
2023-04-18T03:59:42.849Z,7.90
2023-04-18T04:02:12.152Z,7.80
2023-04-18T04:04:40.258Z,7.80
2023-04-18T04:07:09.225Z,7.80
2023-04-18T04:09:39.209Z,7.80
2023-04-18T04:12:08.315Z,7.70
2023-04-18T04:14:38.144Z,7.70
2023-04-18T04:17:06.755Z,7.70
2023-04-18T04:19:35.440Z,7.70
2023-04-18T04:22:10.290Z,7.70
2023-04-18T04:24:40.496Z,7.60
2023-04-18T04:27:08.757Z,7.50
2023-04-18T04:29:39.385Z,7.50
2023-04-18T04:32:08.579Z,7.50
2023-04-18T04:34:41.435Z,7.50
2023-04-18T04:37:14.034Z,7.50
2023-04-18T04:40:00.867Z,7.50
2023-04-18T04:42:45.934Z,7.60
2023-04-18T04:45:21.005Z,7.70
2023-04-18T04:47:48.990Z,7.60
2023-04-18T04:50:19.115Z,7.60
2023-04-18T04:52:47.034Z,7.60
2023-04-18T04:55:17.497Z,7.60
2023-04-18T04:57:45.828Z,7.60
2023-04-18T05:00:32.003Z,7.70
2023-04-18T05:03:00.160Z,7.80
2023-04-18T05:05:29.103Z,7.80
2023-04-18T05:07:57.109Z,7.80
2023-04-18T05:10:26.844Z,7.80
2023-04-18T05:12:54.857Z,7.70
2023-04-18T05:15:24.110Z,7.60
2023-04-18T05:17:52.213Z,7.60
2023-04-18T05:20:21.026Z,7.50
2023-04-18T05:22:49.033Z,7.50
2023-04-18T05:25:18.094Z,7.50
2023-04-18T05:27:47.942Z,7.40
2023-04-18T05:30:16.566Z,7.40
2023-04-18T05:32:44.736Z,7.50
2023-04-18T05:35:13.708Z,7.50
2023-04-18T05:37:41.700Z,7.60
2023-04-18T05:40:11.146Z,7.60
2023-04-18T05:42:39.147Z,7.60
2023-04-18T05:45:10.224Z,7.70
2023-04-18T05:47:38.711Z,7.80
2023-04-18T05:50:07.480Z,7.80
2023-04-18T05:52:35.829Z,7.80
2023-04-18T05:55:04.196Z,7.90
2023-04-18T05:57:32.209Z,8.00
2023-04-18T06:00:00.660Z,8.00
2023-04-18T06:02:30.121Z,8.10
2023-04-18T06:04:58.882Z,8.20
2023-04-18T06:07:27.060Z,8.40
2023-04-18T06:09:55.459Z,8.60
2023-04-18T06:12:23.625Z,8.80
2023-04-18T06:14:52.464Z,8.90
2023-04-18T06:17:21.399Z,8.90
2023-04-18T06:19:50.748Z,9.00
2023-04-18T06:22:19.241Z,9.00
2023-04-18T06:24:47.261Z,9.10
2023-04-18T06:27:27.884Z,9.10
2023-04-18T06:29:59.026Z,9.20
2023-04-18T06:32:27.512Z,9.40
2023-04-18T06:34:56.957Z,9.70
2023-04-18T06:37:25.262Z,9.80
2023-04-18T06:39:53.365Z,9.90
2023-04-18T06:42:22.585Z,10.10
2023-04-18T06:44:50.920Z,10.10
2023-04-18T06:47:19.282Z,9.70
2023-04-18T06:49:47.215Z,9.60
2023-04-18T06:52:16.556Z,9.80
2023-04-18T06:54:44.514Z,9.70
2023-04-18T06:57:13.024Z,9.70
2023-04-18T06:59:41.699Z,9.70
2023-04-18T07:02:10.188Z,9.60
2023-04-18T07:04:38.534Z,9.90
2023-04-18T07:07:06.741Z,10.30
2023-04-18T07:09:37.776Z,10.30
2023-04-18T07:12:06.417Z,10.40
2023-04-18T07:14:34.504Z,10.70
2023-04-18T07:17:02.929Z,11.00
2023-04-18T07:19:30.975Z,10.70
2023-04-18T07:21:59.837Z,10.20
2023-04-18T07:24:27.856Z,9.80
2023-04-18T07:26:58.092Z,9.60
2023-04-18T07:29:26.088Z,9.40
2023-04-18T07:31:54.554Z,9.40
2023-04-18T07:34:23.110Z,9.40
2023-04-18T07:36:51.754Z,9.50
2023-04-18T07:39:19.837Z,9.60
2023-04-18T07:41:48.134Z,9.70
2023-04-18T07:44:18.320Z,9.70
2023-04-18T07:46:47.027Z,9.80
2023-04-18T07:49:15.865Z,9.90
2023-04-18T07:51:44.378Z,9.80
2023-04-18T07:54:12.368Z,9.80
2023-04-18T07:56:41.080Z,9.80
2023-04-18T07:59:09.113Z,9.70
2023-04-18T08:01:38.798Z,9.70
2023-04-18T08:04:07.247Z,9.70
2023-04-18T08:06:35.866Z,9.70
2023-04-18T08:09:05.839Z,9.90
2023-04-18T08:11:34.783Z,10.10
2023-04-18T08:14:02.764Z,10.50
2023-04-18T08:16:31.189Z,10.90
2023-04-18T08:19:01.011Z,11.20
2023-04-18T08:21:29.394Z,11.10
2023-04-18T08:23:57.690Z,11.10
2023-04-18T08:26:26.203Z,11.10
2023-04-18T08:28:54.567Z,11.30
2023-04-18T08:31:22.593Z,11.50
2023-04-18T08:33:50.931Z,11.40
2023-04-18T08:36:21.256Z,11.40
2023-04-18T08:38:49.665Z,11.60
2023-04-18T08:41:18.691Z,11.70
2023-04-18T08:43:48.710Z,11.60
2023-04-18T08:46:17.181Z,11.50
2023-04-18T08:48:47.321Z,11.40
2023-04-18T08:51:15.452Z,11.30
2023-04-18T08:53:45.416Z,11.10
2023-04-18T08:56:14.717Z,11.00
2023-04-18T08:58:45.175Z,10.80
2023-04-18T09:01:13.567Z,11.00
2023-04-18T09:03:43.490Z,11.00
2023-04-18T09:06:13.934Z,11.20
2023-04-18T09:08:43.694Z,11.20
2023-04-18T09:11:22.584Z,11.10
2023-04-18T09:13:52.282Z,10.90
2023-04-18T09:16:22.946Z,10.80
2023-04-18T09:19:12.334Z,10.80
2023-04-18T09:21:41.369Z,11.00
2023-04-18T09:24:21.315Z,11.00
2023-04-18T09:26:51.433Z,11.00
2023-04-18T09:29:22.790Z,11.20
2023-04-18T09:31:59.771Z,11.30
2023-04-18T09:34:29.049Z,11.30
2023-04-18T09:37:06.883Z,11.10
2023-04-18T09:39:35.332Z,10.90
2023-04-18T09:42:04.885Z,10.80
2023-04-18T09:44:33.525Z,10.70
2023-04-18T09:47:02.007Z,10.90
2023-04-18T09:49:30.241Z,10.90
2023-04-18T09:51:58.740Z,11.00
2023-04-18T09:54:27.065Z,11.10
2023-04-18T09:56:56.429Z,11.30
2023-04-18T09:59:33.789Z,11.50
2023-04-18T10:02:03.611Z,11.80
2023-04-18T10:04:32.562Z,12.20
2023-04-18T10:07:01.415Z,12.50
2023-04-18T10:09:31.447Z,12.60
2023-04-18T10:12:02.700Z,12.40
2023-04-18T10:14:33.621Z,12.30
2023-04-18T10:17:11.776Z,12.50
2023-04-18T10:19:41.976Z,12.70
2023-04-18T10:22:10.852Z,12.60
2023-04-18T10:24:53.304Z,12.60
2023-04-18T10:27:37.167Z,12.50
2023-04-18T10:30:08.999Z,12.70
2023-04-18T10:32:38.001Z,12.80
2023-04-18T10:35:06.428Z,12.70
2023-04-18T10:37:34.896Z,12.50
2023-04-18T10:40:06.535Z,12.40
2023-04-18T10:42:50.114Z,12.40
2023-04-18T10:45:20.072Z,12.40
2023-04-18T10:47:49.165Z,12.50
2023-04-18T10:50:17.754Z,12.80
2023-04-18T10:52:46.760Z,13.20
2023-04-18T10:55:17.584Z,13.40
2023-04-18T10:57:46.988Z,13.60
2023-04-18T11:00:16.660Z,13.60
2023-04-18T11:02:57.819Z,13.70
2023-04-18T11:05:27.108Z,13.60
2023-04-18T11:07:55.800Z,13.50
2023-04-18T11:10:24.579Z,13.40
2023-04-18T11:12:54.198Z,13.30
2023-04-18T11:15:22.725Z,13.70
2023-04-18T11:18:00.511Z,14.00
2023-04-18T11:20:29.205Z,13.90
2023-04-18T11:22:58.654Z,14.00
2023-04-18T11:25:28.007Z,14.20
2023-04-18T11:27:59.124Z,14.00
2023-04-18T11:30:27.473Z,14.20
2023-04-18T11:32:56.100Z,14.30
2023-04-18T11:35:25.562Z,14.70
2023-04-18T11:37:55.328Z,14.80
2023-04-18T11:40:23.360Z,14.90
2023-04-18T11:42:51.776Z,15.00
2023-04-18T11:45:19.746Z,14.90
2023-04-18T11:47:48.343Z,14.80
2023-04-18T11:50:16.339Z,15.00
2023-04-18T11:52:50.308Z,15.00
2023-04-18T11:55:21.251Z,14.80
2023-04-18T11:57:53.755Z,14.80
2023-04-18T12:00:31.511Z,14.60
2023-04-18T12:03:02.085Z,14.50
2023-04-18T12:05:31.589Z,14.20
2023-04-18T12:08:08.574Z,14.10
2023-04-18T12:10:37.022Z,14.00
2023-04-18T12:13:08.077Z,13.90
2023-04-18T12:15:38.746Z,13.90
2023-04-18T12:18:09.813Z,13.70
2023-04-18T12:20:38.830Z,13.70
2023-04-18T12:23:09.385Z,13.60
2023-04-18T12:25:37.439Z,13.50
2023-04-18T12:28:15.405Z,13.40
2023-04-18T12:30:43.755Z,13.40
2023-04-18T12:33:12.940Z,13.40
2023-04-18T12:35:41.194Z,13.30
2023-04-18T12:38:11.376Z,13.30
2023-04-18T12:40:39.996Z,13.20
2023-04-18T12:43:09.370Z,13.00
2023-04-18T12:45:37.356Z,12.70
2023-04-18T12:48:06.354Z,12.60
2023-04-18T12:50:34.685Z,12.50
2023-04-18T12:53:03.536Z,12.30
2023-04-18T12:55:33.271Z,12.20
2023-04-18T12:58:02.263Z,12.20
2023-04-18T13:00:31.240Z,12.20
2023-04-18T13:03:00.399Z,12.30
2023-04-18T13:05:33.128Z,12.10
2023-04-18T13:08:15.458Z,12.00
2023-04-18T13:10:47.587Z,11.90
2023-04-18T13:13:16.680Z,11.90
2023-04-18T13:15:44.736Z,11.70
2023-04-18T13:18:13.904Z,11.60
2023-04-18T13:20:41.906Z,11.50
2023-04-18T13:23:10.271Z,11.50
2023-04-18T13:25:38.256Z,11.50
2023-04-18T13:28:08.392Z,11.50
2023-04-18T13:30:36.706Z,11.50
2023-04-18T13:33:04.797Z,11.40
2023-04-18T13:35:32.835Z,11.30
2023-04-18T13:38:01.350Z,11.30
2023-04-18T13:40:29.351Z,11.30
2023-04-18T13:42:57.811Z,11.30
2023-04-18T13:45:27.508Z,11.40
2023-04-18T13:47:55.608Z,11.40
2023-04-18T13:50:24.485Z,11.40
2023-04-18T13:52:54.914Z,11.40
2023-04-18T13:55:22.957Z,11.40
2023-04-18T13:57:51.419Z,11.40
2023-04-18T14:00:20.258Z,11.30
2023-04-18T14:02:50.596Z,11.30
2023-04-18T14:05:18.978Z,11.20
2023-04-18T14:07:48.860Z,11.10
2023-04-18T14:10:17.000Z,11.10
2023-04-18T14:12:45.076Z,11.10
2023-04-18T14:15:13.169Z,11.00
2023-04-18T14:17:44.019Z,11.00
2023-04-18T14:20:19.164Z,11.00
2023-04-18T14:22:47.990Z,10.90
2023-04-18T14:25:17.005Z,10.90
2023-04-18T14:27:48.515Z,10.80
2023-04-18T14:30:18.118Z,10.90
2023-04-18T14:32:51.519Z,10.90
2023-04-18T14:35:21.938Z,11.00
2023-04-18T14:37:50.822Z,11.10
2023-04-18T14:40:21.162Z,11.10
2023-04-18T14:42:50.370Z,11.10
2023-04-18T14:45:18.869Z,11.00
2023-04-18T14:47:47.593Z,11.00
2023-04-18T14:50:16.418Z,11.00
2023-04-18T14:52:46.587Z,10.90
2023-04-18T14:55:19.625Z,10.80
2023-04-18T14:57:50.052Z,10.80
2023-04-18T15:00:19.629Z,10.70
2023-04-18T15:02:48.686Z,10.70
2023-04-18T15:05:17.814Z,10.60
2023-04-18T15:07:48.303Z,10.50
2023-04-18T15:10:16.731Z,10.40
2023-04-18T15:12:47.125Z,10.30
2023-04-18T15:15:15.742Z,10.30
2023-04-18T15:17:44.511Z,10.20
2023-04-18T15:20:13.079Z,10.30
2023-04-18T15:22:41.582Z,10.40
2023-04-18T15:25:16.282Z,10.50
2023-04-18T15:27:44.742Z,10.50
2023-04-18T15:30:13.507Z,10.60
2023-04-18T15:32:42.549Z,10.60
2023-04-18T15:35:11.324Z,10.60
2023-04-18T15:37:39.867Z,10.60
2023-04-18T15:40:09.723Z,10.50
2023-04-18T15:42:40.178Z,10.50
2023-04-18T15:45:08.931Z,10.50
2023-04-18T15:47:37.416Z,10.50
2023-04-18T15:50:05.729Z,10.50
2023-04-18T15:52:33.791Z,10.40
2023-04-18T15:55:01.880Z,10.50
2023-04-18T15:57:30.498Z,10.50
2023-04-18T15:59:59.874Z,10.60
2023-04-18T16:02:28.088Z,10.60
2023-04-18T16:04:56.097Z,10.60
2023-04-18T16:07:24.384Z,10.60
2023-04-18T16:09:52.320Z,10.60
2023-04-18T16:12:20.804Z,10.60
2023-04-18T16:14:48.756Z,10.50
2023-04-18T16:17:42.723Z,10.40
2023-04-18T16:20:12.796Z,10.40
2023-04-18T16:22:41.297Z,10.30
2023-04-18T16:25:10.123Z,10.30
2023-04-18T16:27:38.928Z,10.30
2023-04-18T16:30:08.032Z,10.40
2023-04-18T16:32:38.350Z,10.40
2023-04-18T16:35:07.879Z,10.40
2023-04-18T16:37:37.911Z,10.50
2023-04-18T16:40:07.161Z,10.50
2023-04-18T16:42:35.976Z,10.50
2023-04-18T16:45:04.645Z,10.50
2023-04-18T16:47:33.168Z,10.50
2023-04-18T16:50:01.160Z,10.50
2023-04-18T16:52:29.237Z,10.50
2023-04-18T16:54:58.617Z,10.50
2023-04-18T16:57:27.474Z,10.50
2023-04-18T16:59:55.494Z,10.50
2023-04-18T17:02:24.152Z,10.50
2023-04-18T17:04:52.275Z,10.50
2023-04-18T17:07:21.019Z,10.50
2023-04-18T17:09:49.015Z,10.60
2023-04-18T17:12:19.253Z,10.50
2023-04-18T17:14:47.405Z,10.50
2023-04-18T17:17:15.392Z,10.50
2023-04-18T17:19:44.136Z,10.60
2023-04-18T17:22:12.206Z,10.60
2023-04-18T17:24:41.153Z,10.50
2023-04-18T17:27:09.269Z,10.60
2023-04-18T17:29:39.336Z,10.60
2023-04-18T17:32:07.778Z,10.60
2023-04-18T17:34:36.298Z,10.60
2023-04-18T17:37:05.389Z,10.60
2023-04-18T17:39:33.910Z,10.70
2023-04-18T17:42:02.472Z,10.70
2023-04-18T17:44:30.532Z,10.70
2023-04-18T17:47:01.257Z,10.70
2023-04-18T17:49:34.516Z,10.70
2023-04-18T17:52:02.943Z,10.70
2023-04-18T17:54:31.108Z,10.70
2023-04-18T17:56:59.599Z,10.70
2023-04-18T17:59:28.222Z,10.60
2023-04-18T18:01:56.816Z,10.60
2023-04-18T18:04:27.029Z,10.60
2023-04-18T18:06:55.860Z,10.60
2023-04-18T18:09:23.874Z,10.60
2023-04-18T18:11:54.632Z,10.60
2023-04-18T18:14:23.903Z,10.60
2023-04-18T18:16:52.340Z,10.60
2023-04-18T18:19:21.440Z,10.60
2023-04-18T18:21:51.243Z,10.60
2023-04-18T18:24:20.047Z,10.60
2023-04-18T18:26:50.211Z,10.60
2023-04-18T18:29:20.237Z,10.60
2023-04-18T18:31:48.415Z,10.60
2023-04-18T18:34:17.340Z,10.60
2023-04-18T18:36:45.400Z,10.60
2023-04-18T18:39:16.709Z,10.60
2023-04-18T18:41:44.845Z,10.60
2023-04-18T18:44:13.438Z,10.60
2023-04-18T18:46:43.056Z,10.60
2023-04-18T18:49:12.080Z,10.70
2023-04-18T18:51:40.956Z,10.70
2023-04-18T18:54:09.861Z,10.70
2023-04-18T18:56:40.077Z,10.70
2023-04-18T18:59:08.749Z,10.70
2023-04-18T19:01:36.803Z,10.70
2023-04-18T19:04:05.881Z,10.80
2023-04-18T19:06:34.105Z,10.70
2023-04-18T19:09:02.513Z,10.70
2023-04-18T19:11:30.545Z,10.70
2023-04-18T19:14:00.548Z,10.70
2023-04-18T19:16:30.147Z,10.70
2023-04-18T19:18:59.016Z,10.70
2023-04-18T19:21:27.199Z,10.70
2023-04-18T19:23:56.080Z,10.70
2023-04-18T19:26:24.344Z,10.70
2023-04-18T19:28:53.140Z,10.70
2023-04-18T19:31:22.518Z,10.70
2023-04-18T19:33:51.019Z,10.70
2023-04-18T19:36:19.392Z,10.70
2023-04-18T19:38:47.381Z,10.80
2023-04-18T19:41:15.665Z,10.80
2023-04-18T19:43:43.668Z,10.80
2023-04-18T19:46:12.075Z,10.80
2023-04-18T19:48:41.553Z,10.80
2023-04-18T19:51:10.440Z,10.80
2023-04-18T19:53:38.468Z,10.80
2023-04-18T19:56:06.761Z,10.80
2023-04-18T19:58:35.598Z,10.80
2023-04-18T20:01:05.969Z,10.70
2023-04-18T20:03:34.539Z,10.80
2023-04-18T20:06:06.229Z,10.70
2023-04-18T20:08:34.838Z,10.70
2023-04-18T20:11:03.243Z,10.80
2023-04-18T20:13:31.287Z,10.70
2023-04-18T20:15:59.598Z,10.80
2023-04-18T20:18:27.623Z,10.70
2023-04-18T20:20:56.488Z,10.70
2023-04-18T20:23:25.947Z,10.80
2023-04-18T20:25:54.698Z,10.80
2023-04-18T20:28:22.732Z,10.80
2023-04-18T20:30:51.411Z,10.70
2023-04-18T20:33:19.541Z,10.80
2023-04-18T20:35:48.084Z,10.80
2023-04-18T20:38:16.091Z,10.70
2023-04-18T20:40:46.415Z,10.70
2023-04-18T20:43:17.500Z,10.70
2023-04-18T20:45:47.503Z,10.70
2023-04-18T20:48:15.545Z,10.70
2023-04-18T20:50:49.184Z,10.70
2023-04-18T20:53:17.278Z,10.70
2023-04-18T20:55:47.265Z,10.70
2023-04-18T20:58:15.334Z,10.70
2023-04-18T21:00:45.093Z,10.70
2023-04-18T21:03:14.137Z,10.70
2023-04-18T21:05:44.320Z,10.70
2023-04-18T21:08:12.531Z,10.70
2023-04-18T21:10:40.729Z,10.70
2023-04-18T21:13:12.619Z,10.70
2023-04-18T21:15:41.616Z,10.70
2023-04-18T21:18:10.029Z,10.70
2023-04-18T21:20:38.013Z,10.70
2023-04-18T21:23:06.357Z,10.70
2023-04-18T21:25:34.434Z,10.70
2023-04-18T21:28:02.759Z,10.70
2023-04-18T21:30:32.212Z,10.70
2023-04-18T21:33:00.665Z,10.70
2023-04-18T21:35:29.725Z,10.70
2023-04-18T21:37:58.026Z,10.60
2023-04-18T21:40:26.824Z,10.60
2023-04-18T21:42:55.089Z,10.60
2023-04-18T21:45:23.236Z,10.60
2023-04-18T21:47:53.535Z,10.60
2023-04-18T21:50:21.624Z,10.60
2023-04-18T21:52:49.887Z,10.60
2023-04-18T21:55:18.810Z,10.60
2023-04-18T21:57:47.085Z,10.60
2023-04-18T22:00:16.574Z,10.60
2023-04-18T22:02:45.114Z,10.60
2023-04-18T22:05:16.188Z,10.60
2023-04-18T22:07:56.971Z,10.60
2023-04-18T22:10:25.926Z,10.60
2023-04-18T22:12:54.949Z,10.50
2023-04-18T22:15:23.759Z,10.50
2023-04-18T22:18:05.416Z,10.50
2023-04-18T22:20:35.886Z,10.50
2023-04-18T22:23:05.006Z,10.40
2023-04-18T22:25:33.011Z,10.40
2023-04-18T22:28:02.425Z,10.40
2023-04-18T22:30:30.745Z,10.30
2023-04-18T22:32:59.471Z,10.30
2023-04-18T22:35:27.737Z,10.30
2023-04-18T22:37:57.978Z,10.30
2023-04-18T22:40:26.733Z,10.30
2023-04-18T22:42:55.469Z,10.30
2023-04-18T22:45:23.440Z,10.20
2023-04-18T22:47:52.304Z,10.20
2023-04-18T22:50:20.448Z,10.20
2023-04-18T22:52:48.987Z,10.20
2023-04-18T22:55:19.952Z,10.10
2023-04-18T22:57:48.239Z,10.10
2023-04-18T23:00:16.833Z,10.10
2023-04-18T23:02:45.008Z,10.10
2023-04-18T23:05:15.496Z,10.10
2023-04-18T23:07:43.450Z,10.10
2023-04-18T23:10:12.264Z,10.10
2023-04-18T23:12:41.616Z,10.10
2023-04-18T23:15:10.116Z,10.10
2023-04-18T23:17:38.146Z,10.00
2023-04-18T23:20:07.769Z,10.00
2023-04-18T23:22:35.692Z,10.00
2023-04-18T23:25:03.948Z,10.00
2023-04-18T23:27:31.889Z,10.00
2023-04-18T23:30:01.611Z,9.90
2023-04-18T23:32:29.599Z,9.90
2023-04-18T23:34:57.914Z,9.90
2023-04-18T23:37:25.948Z,9.80
2023-04-18T23:39:54.315Z,9.80
2023-04-18T23:42:22.303Z,9.80
2023-04-18T23:44:51.385Z,9.70
2023-04-18T23:47:20.826Z,9.70
2023-04-18T23:49:49.101Z,9.70
2023-04-18T23:52:17.174Z,9.60
2023-04-18T23:54:45.761Z,9.60
2023-04-18T23:57:13.782Z,9.60
2023-04-18T23:59:42.188Z,9.60
